sensor_id;sensor_type;location;lat;lon;timestamp;P1;durP1;ratioP1;P2;durP2;ratioP2
22904;SDS011;11619;50.140;8.518;2023-09-07T00:01:01;3.00;;;2.70;;
22904;SDS011;11619;50.140;8.518;2023-09-07T00:03:30;4.15;;;2.58;;
22904;SDS011;11619;50.140;8.518;2023-09-07T00:05:57;4.50;;;2.92;;
22904;SDS011;11619;50.140;8.518;2023-09-07T00:08:23;6.45;;;2.40;;
22904;SDS011;11619;50.140;8.518;2023-09-07T00:10:51;4.18;;;2.80;;
22904;SDS011;11619;50.140;8.518;2023-09-07T00:13:18;4.85;;;3.25;;
22904;SDS011;11619;50.140;8.518;2023-09-07T00:15:44;5.75;;;2.75;;
22904;SDS011;11619;50.140;8.518;2023-09-07T00:18:11;5.05;;;2.67;;
22904;SDS011;11619;50.140;8.518;2023-09-07T00:20:37;4.35;;;2.55;;
22904;SDS011;11619;50.140;8.518;2023-09-07T00:23:04;3.00;;;2.70;;
22904;SDS011;11619;50.140;8.518;2023-09-07T00:25:31;4.60;;;2.72;;
22904;SDS011;11619;50.140;8.518;2023-09-07T00:27:58;2.97;;;2.65;;
22904;SDS011;11619;50.140;8.518;2023-09-07T00:30:24;4.68;;;2.92;;
22904;SDS011;11619;50.140;8.518;2023-09-07T00:32:51;3.88;;;2.55;;
22904;SDS011;11619;50.140;8.518;2023-09-07T00:35:17;4.18;;;2.70;;
22904;SDS011;11619;50.140;8.518;2023-09-07T00:37:44;3.95;;;2.72;;
22904;SDS011;11619;50.140;8.518;2023-09-07T00:40:10;3.67;;;2.80;;
22904;SDS011;11619;50.140;8.518;2023-09-07T00:42:36;2.65;;;2.45;;
22904;SDS011;11619;50.140;8.518;2023-09-07T00:45:03;3.58;;;2.58;;
22904;SDS011;11619;50.140;8.518;2023-09-07T00:47:30;5.93;;;2.65;;
22904;SDS011;11619;50.140;8.518;2023-09-07T00:50:00;3.40;;;2.92;;
22904;SDS011;11619;50.140;8.518;2023-09-07T00:52:26;3.20;;;2.40;;
22904;SDS011;11619;50.140;8.518;2023-09-07T00:54:53;2.92;;;2.55;;
22904;SDS011;11619;50.140;8.518;2023-09-07T00:57:20;3.08;;;2.47;;
22904;SDS011;11619;50.140;8.518;2023-09-07T00:59:46;5.07;;;2.72;;
22904;SDS011;11619;50.140;8.518;2023-09-07T01:02:13;3.35;;;3.00;;
22904;SDS011;11619;50.140;8.518;2023-09-07T01:04:40;4.05;;;2.63;;
22904;SDS011;11619;50.140;8.518;2023-09-07T01:09:38;2.90;;;2.70;;
22904;SDS011;11619;50.140;8.518;2023-09-07T01:12:06;3.75;;;2.50;;
22904;SDS011;11619;50.140;8.518;2023-09-07T01:14:36;3.67;;;3.00;;
22904;SDS011;11619;50.140;8.518;2023-09-07T01:17:03;4.22;;;2.88;;
22904;SDS011;11619;50.140;8.518;2023-09-07T01:19:31;4.90;;;2.97;;
22904;SDS011;11619;50.140;8.518;2023-09-07T01:21:58;5.20;;;2.80;;
22904;SDS011;11619;50.140;8.518;2023-09-07T01:24:25;4.55;;;2.90;;
22904;SDS011;11619;50.140;8.518;2023-09-07T01:26:52;4.55;;;3.05;;
22904;SDS011;11619;50.140;8.518;2023-09-07T01:29:19;2.92;;;2.63;;
22904;SDS011;11619;50.140;8.518;2023-09-07T01:31:46;6.35;;;2.80;;
22904;SDS011;11619;50.140;8.518;2023-09-07T01:34:14;2.85;;;2.65;;
22904;SDS011;11619;50.140;8.518;2023-09-07T01:36:41;4.68;;;3.38;;
22904;SDS011;11619;50.140;8.518;2023-09-07T01:39:07;5.47;;;2.92;;
22904;SDS011;11619;50.140;8.518;2023-09-07T01:41:34;3.90;;;2.75;;
22904;SDS011;11619;50.140;8.518;2023-09-07T01:44:01;3.03;;;2.83;;
22904;SDS011;11619;50.140;8.518;2023-09-07T01:46:27;2.70;;;2.50;;
22904;SDS011;11619;50.140;8.518;2023-09-07T01:48:54;2.65;;;2.45;;
22904;SDS011;11619;50.140;8.518;2023-09-07T01:51:21;4.00;;;2.63;;
22904;SDS011;11619;50.140;8.518;2023-09-07T01:53:47;2.97;;;2.70;;
22904;SDS011;11619;50.140;8.518;2023-09-07T01:56:18;4.72;;;2.90;;
22904;SDS011;11619;50.140;8.518;2023-09-07T01:58:44;3.38;;;2.78;;
22904;SDS011;11619;50.140;8.518;2023-09-07T02:01:21;3.22;;;2.90;;
22904;SDS011;11619;50.140;8.518;2023-09-07T02:03:57;3.65;;;3.33;;
22904;SDS011;11619;50.140;8.518;2023-09-07T02:06:23;3.17;;;2.88;;
22904;SDS011;11619;50.140;8.518;2023-09-07T02:08:50;3.28;;;3.00;;
22904;SDS011;11619;50.140;8.518;2023-09-07T02:11:16;4.90;;;2.70;;
22904;SDS011;11619;50.140;8.518;2023-09-07T02:13:43;3.38;;;3.03;;
22904;SDS011;11619;50.140;8.518;2023-09-07T02:16:11;4.30;;;3.08;;
22904;SDS011;11619;50.140;8.518;2023-09-07T02:18:38;3.47;;;3.00;;
22904;SDS011;11619;50.140;8.518;2023-09-07T02:21:09;3.47;;;2.80;;
22904;SDS011;11619;50.140;8.518;2023-09-07T02:23:36;3.47;;;2.90;;
22904;SDS011;11619;50.140;8.518;2023-09-07T02:26:05;5.03;;;3.30;;
22904;SDS011;11619;50.140;8.518;2023-09-07T02:28:31;3.67;;;2.78;;
22904;SDS011;11619;50.140;8.518;2023-09-07T02:31:02;3.60;;;2.83;;
22904;SDS011;11619;50.140;8.518;2023-09-07T02:33:29;5.35;;;2.75;;
22904;SDS011;11619;50.140;8.518;2023-09-07T02:35:56;3.03;;;2.75;;
22904;SDS011;11619;50.140;8.518;2023-09-07T02:38:23;3.88;;;3.58;;
22904;SDS011;11619;50.140;8.518;2023-09-07T02:40:49;3.42;;;3.10;;
22904;SDS011;11619;50.140;8.518;2023-09-07T02:43:16;3.83;;;3.42;;
22904;SDS011;11619;50.140;8.518;2023-09-07T02:45:42;3.38;;;3.05;;
22904;SDS011;11619;50.140;8.518;2023-09-07T02:48:09;3.20;;;2.85;;
22904;SDS011;11619;50.140;8.518;2023-09-07T02:50:36;4.22;;;3.28;;
22904;SDS011;11619;50.140;8.518;2023-09-07T02:53:02;4.63;;;3.08;;
22904;SDS011;11619;50.140;8.518;2023-09-07T02:55:30;4.25;;;2.97;;
22904;SDS011;11619;50.140;8.518;2023-09-07T02:57:57;5.57;;;3.22;;
22904;SDS011;11619;50.140;8.518;2023-09-07T03:00:23;3.60;;;3.30;;
22904;SDS011;11619;50.140;8.518;2023-09-07T03:02:50;3.28;;;2.95;;
22904;SDS011;11619;50.140;8.518;2023-09-07T03:05:16;5.93;;;3.38;;
22904;SDS011;11619;50.140;8.518;2023-09-07T03:07:44;3.85;;;3.40;;
22904;SDS011;11619;50.140;8.518;2023-09-07T03:10:11;3.40;;;2.90;;
22904;SDS011;11619;50.140;8.518;2023-09-07T03:12:38;3.67;;;3.00;;
22904;SDS011;11619;50.140;8.518;2023-09-07T03:15:05;3.72;;;3.40;;
22904;SDS011;11619;50.140;8.518;2023-09-07T03:17:32;3.70;;;3.25;;
22904;SDS011;11619;50.140;8.518;2023-09-07T03:19:59;6.18;;;3.28;;
22904;SDS011;11619;50.140;8.518;2023-09-07T03:22:25;5.38;;;3.85;;
22904;SDS011;11619;50.140;8.518;2023-09-07T03:24:52;4.63;;;3.35;;
22904;SDS011;11619;50.140;8.518;2023-09-07T03:27:18;3.80;;;3.42;;
22904;SDS011;11619;50.140;8.518;2023-09-07T03:29:44;4.72;;;3.10;;
22904;SDS011;11619;50.140;8.518;2023-09-07T03:34:45;5.72;;;3.65;;
22904;SDS011;11619;50.140;8.518;2023-09-07T03:37:12;4.00;;;3.63;;
22904;SDS011;11619;50.140;8.518;2023-09-07T03:39:38;4.32;;;3.28;;
22904;SDS011;11619;50.140;8.518;2023-09-07T03:42:05;4.63;;;3.30;;
22904;SDS011;11619;50.140;8.518;2023-09-07T03:44:32;4.07;;;3.65;;
22904;SDS011;11619;50.140;8.518;2023-09-07T03:46:58;3.72;;;3.25;;
22904;SDS011;11619;50.140;8.518;2023-09-07T03:49:27;4.82;;;3.50;;
22904;SDS011;11619;50.140;8.518;2023-09-07T03:51:53;5.13;;;3.53;;
22904;SDS011;11619;50.140;8.518;2023-09-07T03:54:20;3.83;;;3.53;;
22904;SDS011;11619;50.140;8.518;2023-09-07T03:56:46;3.97;;;3.67;;
22904;SDS011;11619;50.140;8.518;2023-09-07T03:59:12;6.25;;;3.35;;
22904;SDS011;11619;50.140;8.518;2023-09-07T04:01:39;4.25;;;3.67;;
22904;SDS011;11619;50.140;8.518;2023-09-07T04:04:05;3.88;;;3.58;;
22904;SDS011;11619;50.140;8.518;2023-09-07T04:06:32;4.30;;;3.60;;
22904;SDS011;11619;50.140;8.518;2023-09-07T04:08:58;4.85;;;3.80;;
22904;SDS011;11619;50.140;8.518;2023-09-07T04:11:25;4.45;;;3.55;;
22904;SDS011;11619;50.140;8.518;2023-09-07T04:13:51;5.07;;;3.83;;
22904;SDS011;11619;50.140;8.518;2023-09-07T04:16:18;4.30;;;3.90;;
22904;SDS011;11619;50.140;8.518;2023-09-07T04:18:44;3.85;;;3.47;;
22904;SDS011;11619;50.140;8.518;2023-09-07T04:21:11;4.15;;;3.70;;
22904;SDS011;11619;50.140;8.518;2023-09-07T04:23:37;4.25;;;3.85;;
22904;SDS011;11619;50.140;8.518;2023-09-07T04:26:05;4.75;;;3.55;;
22904;SDS011;11619;50.140;8.518;2023-09-07T04:28:33;4.30;;;3.90;;
22904;SDS011;11619;50.140;8.518;2023-09-07T04:31:00;5.13;;;3.92;;
22904;SDS011;11619;50.140;8.518;2023-09-07T04:33:29;3.58;;;3.22;;
22904;SDS011;11619;50.140;8.518;2023-09-07T04:35:56;5.05;;;3.95;;
22904;SDS011;11619;50.140;8.518;2023-09-07T04:38:22;4.43;;;4.03;;
22904;SDS011;11619;50.140;8.518;2023-09-07T04:40:49;4.30;;;3.90;;
22904;SDS011;11619;50.140;8.518;2023-09-07T04:43:15;4.43;;;3.55;;
22904;SDS011;11619;50.140;8.518;2023-09-07T04:45:45;4.63;;;4.03;;
22904;SDS011;11619;50.140;8.518;2023-09-07T04:48:12;3.88;;;3.58;;
22904;SDS011;11619;50.140;8.518;2023-09-07T04:50:39;5.28;;;3.58;;
22904;SDS011;11619;50.140;8.518;2023-09-07T04:53:05;5.05;;;3.85;;
22904;SDS011;11619;50.140;8.518;2023-09-07T04:55:36;5.53;;;3.67;;
22904;SDS011;11619;50.140;8.518;2023-09-07T04:58:03;4.18;;;3.78;;
22904;SDS011;11619;50.140;8.518;2023-09-07T05:00:30;4.15;;;3.75;;
22904;SDS011;11619;50.140;8.518;2023-09-07T05:02:56;4.30;;;3.90;;
22904;SDS011;11619;50.140;8.518;2023-09-07T05:05:23;4.28;;;3.88;;
22904;SDS011;11619;50.140;8.518;2023-09-07T05:07:49;5.15;;;3.95;;
22904;SDS011;11619;50.140;8.518;2023-09-07T05:10:16;4.57;;;3.90;;
22904;SDS011;11619;50.140;8.518;2023-09-07T05:12:42;4.25;;;3.78;;
22904;SDS011;11619;50.140;8.518;2023-09-07T05:15:09;7.18;;;3.92;;
22904;SDS011;11619;50.140;8.518;2023-09-07T05:17:36;5.35;;;4.30;;
22904;SDS011;11619;50.140;8.518;2023-09-07T05:20:03;9.55;;;3.97;;
22904;SDS011;11619;50.140;8.518;2023-09-07T05:22:29;4.30;;;3.90;;
22904;SDS011;11619;50.140;8.518;2023-09-07T05:24:57;4.18;;;3.78;;
22904;SDS011;11619;50.140;8.518;2023-09-07T05:27:27;4.57;;;4.18;;
22904;SDS011;11619;50.140;8.518;2023-09-07T05:29:53;4.28;;;3.85;;
22904;SDS011;11619;50.140;8.518;2023-09-07T05:32:20;5.57;;;4.05;;
22904;SDS011;11619;50.140;8.518;2023-09-07T05:34:46;5.97;;;4.00;;
22904;SDS011;11619;50.140;8.518;2023-09-07T05:37:13;4.55;;;4.13;;
22904;SDS011;11619;50.140;8.518;2023-09-07T05:39:39;4.60;;;4.03;;
22904;SDS011;11619;50.140;8.518;2023-09-07T05:42:06;5.75;;;4.20;;
22904;SDS011;11619;50.140;8.518;2023-09-07T05:44:35;7.82;;;3.90;;
22904;SDS011;11619;50.140;8.518;2023-09-07T05:47:02;5.78;;;3.95;;
22904;SDS011;11619;50.140;8.518;2023-09-07T05:49:29;4.63;;;4.00;;
22904;SDS011;11619;50.140;8.518;2023-09-07T05:51:55;5.55;;;4.40;;
22904;SDS011;11619;50.140;8.518;2023-09-07T05:54:22;4.25;;;3.85;;
22904;SDS011;11619;50.140;8.518;2023-09-07T05:56:48;6.53;;;4.15;;
22904;SDS011;11619;50.140;8.518;2023-09-07T05:59:15;4.55;;;4.15;;
22904;SDS011;11619;50.140;8.518;2023-09-07T06:01:41;7.15;;;4.55;;
22904;SDS011;11619;50.140;8.518;2023-09-07T06:04:08;4.00;;;3.70;;
22904;SDS011;11619;50.140;8.518;2023-09-07T06:06:34;5.10;;;4.47;;
22904;SDS011;11619;50.140;8.518;2023-09-07T06:09:01;4.20;;;3.80;;
22904;SDS011;11619;50.140;8.518;2023-09-07T06:11:27;4.15;;;3.72;;
22904;SDS011;11619;50.140;8.518;2023-09-07T06:13:55;4.50;;;4.13;;
22904;SDS011;11619;50.140;8.518;2023-09-07T06:16:21;4.88;;;3.65;;
22904;SDS011;11619;50.140;8.518;2023-09-07T06:18:48;7.65;;;3.95;;
22904;SDS011;11619;50.140;8.518;2023-09-07T06:21:16;6.88;;;4.13;;
22904;SDS011;11619;50.140;8.518;2023-09-07T06:23:43;7.40;;;3.97;;
22904;SDS011;11619;50.140;8.518;2023-09-07T06:26:11;7.18;;;4.10;;
22904;SDS011;11619;50.140;8.518;2023-09-07T06:28:38;8.38;;;4.30;;
22904;SDS011;11619;50.140;8.518;2023-09-07T06:31:05;6.32;;;4.05;;
22904;SDS011;11619;50.140;8.518;2023-09-07T06:33:32;6.18;;;4.30;;
22904;SDS011;11619;50.140;8.518;2023-09-07T06:35:59;5.30;;;4.07;;
22904;SDS011;11619;50.140;8.518;2023-09-07T06:38:28;4.72;;;3.85;;
22904;SDS011;11619;50.140;8.518;2023-09-07T06:40:56;4.72;;;4.22;;
22904;SDS011;11619;50.140;8.518;2023-09-07T06:43:22;5.78;;;4.05;;
22904;SDS011;11619;50.140;8.518;2023-09-07T06:45:49;4.78;;;4.25;;
22904;SDS011;11619;50.140;8.518;2023-09-07T06:48:15;4.60;;;4.13;;
22904;SDS011;11619;50.140;8.518;2023-09-07T06:50:42;5.75;;;3.83;;
22904;SDS011;11619;50.140;8.518;2023-09-07T06:53:08;3.90;;;3.50;;
22904;SDS011;11619;50.140;8.518;2023-09-07T06:55:35;4.70;;;3.97;;
22904;SDS011;11619;50.140;8.518;2023-09-07T06:58:01;6.35;;;4.10;;
22904;SDS011;11619;50.140;8.518;2023-09-07T07:00:28;5.60;;;4.35;;
22904;SDS011;11619;50.140;8.518;2023-09-07T07:02:55;7.75;;;4.18;;
22904;SDS011;11619;50.140;8.518;2023-09-07T07:05:24;4.63;;;4.22;;
22904;SDS011;11619;50.140;8.518;2023-09-07T07:07:53;6.25;;;4.03;;
22904;SDS011;11619;50.140;8.518;2023-09-07T07:10:19;4.32;;;3.90;;
22904;SDS011;11619;50.140;8.518;2023-09-07T07:12:45;5.82;;;4.72;;
22904;SDS011;11619;50.140;8.518;2023-09-07T07:15:12;6.70;;;4.20;;
22904;SDS011;11619;50.140;8.518;2023-09-07T07:17:38;4.38;;;3.97;;
22904;SDS011;11619;50.140;8.518;2023-09-07T07:20:05;3.95;;;3.65;;
22904;SDS011;11619;50.140;8.518;2023-09-07T07:22:32;4.40;;;3.85;;
22904;SDS011;11619;50.140;8.518;2023-09-07T07:25:01;4.40;;;4.00;;
22904;SDS011;11619;50.140;8.518;2023-09-07T07:27:31;4.28;;;3.97;;
22904;SDS011;11619;50.140;8.518;2023-09-07T07:29:58;4.47;;;4.07;;
22904;SDS011;11619;50.140;8.518;2023-09-07T07:32:25;5.40;;;4.32;;
22904;SDS011;11619;50.140;8.518;2023-09-07T07:34:51;4.78;;;4.03;;
22904;SDS011;11619;50.140;8.518;2023-09-07T07:37:18;6.20;;;4.05;;
22904;SDS011;11619;50.140;8.518;2023-09-07T07:39:44;4.97;;;4.30;;
22904;SDS011;11619;50.140;8.518;2023-09-07T07:42:11;5.10;;;4.20;;
22904;SDS011;11619;50.140;8.518;2023-09-07T07:44:38;4.05;;;3.75;;
22904;SDS011;11619;50.140;8.518;2023-09-07T07:47:05;4.57;;;4.15;;
22904;SDS011;11619;50.140;8.518;2023-09-07T07:49:32;5.43;;;3.80;;
22904;SDS011;11619;50.140;8.518;2023-09-07T07:51:58;5.75;;;3.80;;
22904;SDS011;11619;50.140;8.518;2023-09-07T07:54:25;5.30;;;4.10;;
22904;SDS011;11619;50.140;8.518;2023-09-07T07:56:52;3.78;;;3.45;;
22904;SDS011;11619;50.140;8.518;2023-09-07T07:59:18;5.85;;;4.28;;
22904;SDS011;11619;50.140;8.518;2023-09-07T08:01:45;4.80;;;4.25;;
22904;SDS011;11619;50.140;8.518;2023-09-07T08:04:11;6.43;;;4.30;;
22904;SDS011;11619;50.140;8.518;2023-09-07T08:06:38;4.65;;;4.20;;
22904;SDS011;11619;50.140;8.518;2023-09-07T08:09:04;6.43;;;4.43;;
22904;SDS011;11619;50.140;8.518;2023-09-07T08:11:31;5.15;;;3.95;;
22904;SDS011;11619;50.140;8.518;2023-09-07T08:13:57;7.38;;;4.63;;
22904;SDS011;11619;50.140;8.518;2023-09-07T08:16:24;7.50;;;4.60;;
22904;SDS011;11619;50.140;8.518;2023-09-07T08:18:51;5.38;;;4.10;;
22904;SDS011;11619;50.140;8.518;2023-09-07T08:21:17;7.15;;;4.25;;
22904;SDS011;11619;50.140;8.518;2023-09-07T08:23:44;4.22;;;3.83;;
22904;SDS011;11619;50.140;8.518;2023-09-07T08:26:11;7.18;;;4.15;;
22904;SDS011;11619;50.140;8.518;2023-09-07T08:28:38;4.47;;;4.05;;
22904;SDS011;11619;50.140;8.518;2023-09-07T08:31:13;5.50;;;4.03;;
22904;SDS011;11619;50.140;8.518;2023-09-07T08:33:40;5.57;;;4.10;;
22904;SDS011;11619;50.140;8.518;2023-09-07T08:36:07;4.80;;;4.13;;
22904;SDS011;11619;50.140;8.518;2023-09-07T08:38:34;5.00;;;4.00;;
22904;SDS011;11619;50.140;8.518;2023-09-07T08:41:01;4.15;;;3.75;;
22904;SDS011;11619;50.140;8.518;2023-09-07T08:43:35;4.18;;;3.78;;
22904;SDS011;11619;50.140;8.518;2023-09-07T08:46:17;7.97;;;4.00;;
22904;SDS011;11619;50.140;8.518;2023-09-07T08:48:46;4.03;;;3.72;;
22904;SDS011;11619;50.140;8.518;2023-09-07T08:51:15;4.88;;;4.38;;
22904;SDS011;11619;50.140;8.518;2023-09-07T08:53:42;6.93;;;4.22;;
22904;SDS011;11619;50.140;8.518;2023-09-07T08:56:13;4.10;;;3.70;;
22904;SDS011;11619;50.140;8.518;2023-09-07T08:58:41;4.97;;;4.03;;
22904;SDS011;11619;50.140;8.518;2023-09-07T09:01:08;5.50;;;4.15;;
22904;SDS011;11619;50.140;8.518;2023-09-07T09:03:35;5.35;;;3.80;;
22904;SDS011;11619;50.140;8.518;2023-09-07T09:06:03;4.72;;;3.63;;
22904;SDS011;11619;50.140;8.518;2023-09-07T09:08:40;5.80;;;4.25;;
22904;SDS011;11619;50.140;8.518;2023-09-07T09:11:08;4.57;;;4.18;;
22904;SDS011;11619;50.140;8.518;2023-09-07T09:13:35;4.75;;;3.40;;
22904;SDS011;11619;50.140;8.518;2023-09-07T09:16:03;5.88;;;3.80;;
22904;SDS011;11619;50.140;8.518;2023-09-07T09:18:30;4.57;;;3.90;;
22904;SDS011;11619;50.140;8.518;2023-09-07T09:20:58;4.85;;;4.35;;
22904;SDS011;11619;50.140;8.518;2023-09-07T09:23:35;4.15;;;3.53;;
22904;SDS011;11619;50.140;8.518;2023-09-07T09:26:03;4.88;;;3.72;;
22904;SDS011;11619;50.140;8.518;2023-09-07T09:28:31;5.82;;;3.65;;
22904;SDS011;11619;50.140;8.518;2023-09-07T09:30:59;5.53;;;3.90;;
22904;SDS011;11619;50.140;8.518;2023-09-07T09:35:54;10.93;;;4.00;;
22904;SDS011;11619;50.140;8.518;2023-09-07T09:38:21;20.65;;;4.40;;
22904;SDS011;11619;50.140;8.518;2023-09-07T09:40:47;11.10;;;4.38;;
22904;SDS011;11619;50.140;8.518;2023-09-07T09:43:14;9.02;;;3.80;;
22904;SDS011;11619;50.140;8.518;2023-09-07T09:45:40;6.43;;;4.03;;
22904;SDS011;11619;50.140;8.518;2023-09-07T09:48:07;8.60;;;4.25;;
22904;SDS011;11619;50.140;8.518;2023-09-07T09:50:36;4.20;;;3.42;;
22904;SDS011;11619;50.140;8.518;2023-09-07T09:53:07;4.43;;;3.85;;
22904;SDS011;11619;50.140;8.518;2023-09-07T09:55:34;9.15;;;4.00;;
22904;SDS011;11619;50.140;8.518;2023-09-07T09:58:01;4.93;;;3.72;;
22904;SDS011;11619;50.140;8.518;2023-09-07T10:00:27;4.90;;;4.13;;
22904;SDS011;11619;50.140;8.518;2023-09-07T10:05:37;6.20;;;4.10;;
22904;SDS011;11619;50.140;8.518;2023-09-07T10:08:13;3.88;;;3.47;;
22904;SDS011;11619;50.140;8.518;2023-09-07T10:10:42;6.50;;;4.20;;
22904;SDS011;11619;50.140;8.518;2023-09-07T10:13:09;6.75;;;4.03;;
22904;SDS011;11619;50.140;8.518;2023-09-07T10:15:39;5.35;;;4.85;;
22904;SDS011;11619;50.140;8.518;2023-09-07T10:18:06;4.15;;;3.83;;
22904;SDS011;11619;50.140;8.518;2023-09-07T10:20:50;4.88;;;4.10;;
22904;SDS011;11619;50.140;8.518;2023-09-07T10:26:04;5.63;;;3.75;;
22904;SDS011;11619;50.140;8.518;2023-09-07T10:28:32;5.18;;;4.10;;
22904;SDS011;11619;50.140;8.518;2023-09-07T10:33:32;4.10;;;3.70;;
22904;SDS011;11619;50.140;8.518;2023-09-07T10:36:00;4.20;;;3.80;;
22904;SDS011;11619;50.140;8.518;2023-09-07T10:38:27;8.07;;;4.20;;
22904;SDS011;11619;50.140;8.518;2023-09-07T10:40:55;4.28;;;3.75;;
22904;SDS011;11619;50.140;8.518;2023-09-07T10:43:26;5.55;;;3.58;;
22904;SDS011;11619;50.140;8.518;2023-09-07T10:45:56;5.63;;;4.38;;
22904;SDS011;11619;50.140;8.518;2023-09-07T10:48:24;3.97;;;3.55;;
22904;SDS011;11619;50.140;8.518;2023-09-07T10:50:52;4.80;;;4.30;;
22904;SDS011;11619;50.140;8.518;2023-09-07T10:53:27;4.60;;;4.20;;
22904;SDS011;11619;50.140;8.518;2023-09-07T10:55:54;3.90;;;3.60;;
22904;SDS011;11619;50.140;8.518;2023-09-07T10:58:32;5.22;;;3.78;;
22904;SDS011;11619;50.140;8.518;2023-09-07T11:01:00;6.18;;;3.72;;
22904;SDS011;11619;50.140;8.518;2023-09-07T11:03:27;8.35;;;3.80;;
22904;SDS011;11619;50.140;8.518;2023-09-07T11:05:59;4.90;;;3.33;;
22904;SDS011;11619;50.140;8.518;2023-09-07T11:08:29;8.27;;;3.83;;
22904;SDS011;11619;50.140;8.518;2023-09-07T11:10:57;3.53;;;3.08;;
22904;SDS011;11619;50.140;8.518;2023-09-07T11:13:24;6.82;;;3.60;;
22904;SDS011;11619;50.140;8.518;2023-09-07T11:15:53;5.20;;;3.40;;
22904;SDS011;11619;50.140;8.518;2023-09-07T11:18:21;4.00;;;3.70;;
22904;SDS011;11619;50.140;8.518;2023-09-07T11:20:48;4.28;;;3.20;;
22904;SDS011;11619;50.140;8.518;2023-09-07T11:23:16;5.60;;;3.67;;
22904;SDS011;11619;50.140;8.518;2023-09-07T11:25:43;3.60;;;3.30;;
22904;SDS011;11619;50.140;8.518;2023-09-07T11:28:09;3.90;;;3.50;;
22904;SDS011;11619;50.140;8.518;2023-09-07T11:30:48;4.93;;;4.07;;
22904;SDS011;11619;50.140;8.518;2023-09-07T11:33:16;3.97;;;3.53;;
22904;SDS011;11619;50.140;8.518;2023-09-07T11:35:43;3.33;;;3.10;;
22904;SDS011;11619;50.140;8.518;2023-09-07T11:38:12;4.72;;;3.63;;
22904;SDS011;11619;50.140;8.518;2023-09-07T11:40:39;3.78;;;3.45;;
22904;SDS011;11619;50.140;8.518;2023-09-07T11:43:09;7.30;;;3.67;;
22904;SDS011;11619;50.140;8.518;2023-09-07T11:45:35;6.32;;;3.95;;
22904;SDS011;11619;50.140;8.518;2023-09-07T11:48:02;4.70;;;3.25;;
22904;SDS011;11619;50.140;8.518;2023-09-07T11:50:30;3.83;;;3.28;;
22904;SDS011;11619;50.140;8.518;2023-09-07T11:52:57;4.53;;;3.45;;
22904;SDS011;11619;50.140;8.518;2023-09-07T11:55:23;4.05;;;3.20;;
22904;SDS011;11619;50.140;8.518;2023-09-07T11:57:50;4.93;;;3.60;;
22904;SDS011;11619;50.140;8.518;2023-09-07T12:00:17;5.00;;;3.03;;
22904;SDS011;11619;50.140;8.518;2023-09-07T12:02:44;6.43;;;3.53;;
22904;SDS011;11619;50.140;8.518;2023-09-07T12:05:11;3.55;;;3.25;;
22904;SDS011;11619;50.140;8.518;2023-09-07T12:07:41;3.72;;;3.42;;
22904;SDS011;11619;50.140;8.518;2023-09-07T12:10:09;5.82;;;3.75;;
22904;SDS011;11619;50.140;8.518;2023-09-07T12:12:40;6.60;;;3.47;;
22904;SDS011;11619;50.140;8.518;2023-09-07T12:15:06;4.45;;;3.90;;
22904;SDS011;11619;50.140;8.518;2023-09-07T12:17:33;3.55;;;3.25;;
22904;SDS011;11619;50.140;8.518;2023-09-07T12:20:00;4.03;;;3.30;;
22904;SDS011;11619;50.140;8.518;2023-09-07T12:22:27;4.35;;;3.15;;
22904;SDS011;11619;50.140;8.518;2023-09-07T12:24:55;3.25;;;2.97;;
22904;SDS011;11619;50.140;8.518;2023-09-07T12:27:39;4.03;;;3.67;;
22904;SDS011;11619;50.140;8.518;2023-09-07T12:30:19;3.50;;;3.22;;
22904;SDS011;11619;50.140;8.518;2023-09-07T12:32:47;3.88;;;3.58;;
22904;SDS011;11619;50.140;8.518;2023-09-07T12:35:14;3.47;;;3.17;;
22904;SDS011;11619;50.140;8.518;2023-09-07T12:37:41;5.05;;;3.20;;
22904;SDS011;11619;50.140;8.518;2023-09-07T12:40:08;5.30;;;3.55;;
22904;SDS011;11619;50.140;8.518;2023-09-07T12:42:39;5.10;;;4.03;;
22904;SDS011;11619;50.140;8.518;2023-09-07T12:45:07;4.18;;;3.40;;
22904;SDS011;11619;50.140;8.518;2023-09-07T12:47:35;5.57;;;3.67;;
22904;SDS011;11619;50.140;8.518;2023-09-07T12:50:01;4.18;;;3.50;;
22904;SDS011;11619;50.140;8.518;2023-09-07T12:52:28;5.75;;;3.60;;
22904;SDS011;11619;50.140;8.518;2023-09-07T12:54:57;5.25;;;3.53;;
22904;SDS011;11619;50.140;8.518;2023-09-07T12:57:23;5.38;;;3.65;;
22904;SDS011;11619;50.140;8.518;2023-09-07T12:59:50;4.25;;;3.42;;
22904;SDS011;11619;50.140;8.518;2023-09-07T13:02:16;4.13;;;3.50;;
22904;SDS011;11619;50.140;8.518;2023-09-07T13:04:43;5.93;;;3.22;;
22904;SDS011;11619;50.140;8.518;2023-09-07T13:07:09;5.70;;;4.20;;
22904;SDS011;11619;50.140;8.518;2023-09-07T13:09:36;3.78;;;3.47;;
22904;SDS011;11619;50.140;8.518;2023-09-07T13:12:02;4.25;;;3.13;;
22904;SDS011;11619;50.140;8.518;2023-09-07T13:14:29;3.97;;;3.58;;
22904;SDS011;11619;50.140;8.518;2023-09-07T13:16:58;4.25;;;3.85;;
22904;SDS011;11619;50.140;8.518;2023-09-07T13:19:25;5.70;;;3.60;;
22904;SDS011;11619;50.140;8.518;2023-09-07T13:21:51;4.13;;;3.55;;
22904;SDS011;11619;50.140;8.518;2023-09-07T13:24:18;3.40;;;3.10;;
22904;SDS011;11619;50.140;8.518;2023-09-07T13:26:47;4.95;;;3.10;;
22904;SDS011;11619;50.140;8.518;2023-09-07T13:29:14;4.25;;;3.85;;
22904;SDS011;11619;50.140;8.518;2023-09-07T13:31:40;5.68;;;3.40;;
22904;SDS011;11619;50.140;8.518;2023-09-07T13:34:07;3.78;;;3.47;;
22904;SDS011;11619;50.140;8.518;2023-09-07T13:36:33;4.00;;;3.38;;
22904;SDS011;11619;50.140;8.518;2023-09-07T13:38:59;5.20;;;3.20;;
22904;SDS011;11619;50.140;8.518;2023-09-07T13:41:26;3.70;;;3.17;;
22904;SDS011;11619;50.140;8.518;2023-09-07T13:43:52;5.97;;;3.70;;
22904;SDS011;11619;50.140;8.518;2023-09-07T13:46:20;4.55;;;3.15;;
22904;SDS011;11619;50.140;8.518;2023-09-07T13:48:46;4.22;;;3.65;;
22904;SDS011;11619;50.140;8.518;2023-09-07T13:51:13;17.58;;;4.00;;
22904;SDS011;11619;50.140;8.518;2023-09-07T13:53:39;4.05;;;3.65;;
22904;SDS011;11619;50.140;8.518;2023-09-07T13:56:06;6.35;;;3.97;;
22904;SDS011;11619;50.140;8.518;2023-09-07T13:58:32;4.43;;;3.28;;
22904;SDS011;11619;50.140;8.518;2023-09-07T14:00:58;4.47;;;3.33;;
22904;SDS011;11619;50.140;8.518;2023-09-07T14:03:25;7.35;;;3.92;;
22904;SDS011;11619;50.140;8.518;2023-09-07T14:05:51;3.85;;;3.45;;
22904;SDS011;11619;50.140;8.518;2023-09-07T14:08:18;5.68;;;3.60;;
22904;SDS011;11619;50.140;8.518;2023-09-07T14:10:49;3.78;;;3.40;;
22904;SDS011;11619;50.140;8.518;2023-09-07T14:13:17;5.70;;;3.28;;
22904;SDS011;11619;50.140;8.518;2023-09-07T14:15:44;3.85;;;3.30;;
22904;SDS011;11619;50.140;8.518;2023-09-07T14:18:11;4.40;;;3.63;;
22904;SDS011;11619;50.140;8.518;2023-09-07T14:20:38;3.40;;;3.10;;
22904;SDS011;11619;50.140;8.518;2023-09-07T14:23:04;5.90;;;3.60;;
22904;SDS011;11619;50.140;8.518;2023-09-07T14:25:30;3.55;;;3.25;;
22904;SDS011;11619;50.140;8.518;2023-09-07T14:27:57;3.97;;;3.67;;
22904;SDS011;11619;50.140;8.518;2023-09-07T14:30:23;6.78;;;3.50;;
22904;SDS011;11619;50.140;8.518;2023-09-07T14:32:50;4.60;;;3.35;;
22904;SDS011;11619;50.140;8.518;2023-09-07T14:35:16;3.88;;;3.22;;
22904;SDS011;11619;50.140;8.518;2023-09-07T14:37:43;4.30;;;3.70;;
22904;SDS011;11619;50.140;8.518;2023-09-07T14:40:09;3.65;;;3.35;;
22904;SDS011;11619;50.140;8.518;2023-09-07T14:42:36;3.55;;;3.25;;
22904;SDS011;11619;50.140;8.518;2023-09-07T14:45:03;5.22;;;3.92;;
22904;SDS011;11619;50.140;8.518;2023-09-07T14:47:29;4.30;;;3.90;;
22904;SDS011;11619;50.140;8.518;2023-09-07T14:49:56;6.15;;;3.53;;
22904;SDS011;11619;50.140;8.518;2023-09-07T14:52:23;5.20;;;3.90;;
22904;SDS011;11619;50.140;8.518;2023-09-07T14:54:50;6.97;;;3.75;;
22904;SDS011;11619;50.140;8.518;2023-09-07T14:57:17;4.55;;;4.00;;
22904;SDS011;11619;50.140;8.518;2023-09-07T14:59:44;4.13;;;3.72;;
22904;SDS011;11619;50.140;8.518;2023-09-07T15:02:11;3.95;;;3.50;;
22904;SDS011;11619;50.140;8.518;2023-09-07T15:04:38;3.45;;;3.17;;